sensor_id;sensor_type;location;lat;lon;timestamp;P1;durP1;ratioP1;P2;durP2;ratioP2
71667;SDS011;59504;54.806;9.640;2022-10-16T00:00:19;8.55;;;3.78;;
71667;SDS011;59504;54.806;9.640;2022-10-16T00:02:20;8.23;;;3.75;;
71667;SDS011;59504;54.806;9.640;2022-10-16T00:04:20;9.55;;;3.47;;
71667;SDS011;59504;54.806;9.640;2022-10-16T00:06:21;8.77;;;3.60;;
71667;SDS011;59504;54.806;9.640;2022-10-16T00:08:22;10.50;;;4.53;;
71667;SDS011;59504;54.806;9.640;2022-10-16T00:10:23;14.45;;;3.95;;
71667;SDS011;59504;54.806;9.640;2022-10-16T00:12:24;11.13;;;3.28;;
71667;SDS011;59504;54.806;9.640;2022-10-16T00:14:25;8.63;;;3.33;;
71667;SDS011;59504;54.806;9.640;2022-10-16T00:16:26;10.70;;;3.63;;
71667;SDS011;59504;54.806;9.640;2022-10-16T00:18:28;7.20;;;2.95;;
71667;SDS011;59504;54.806;9.640;2022-10-16T00:20:29;6.65;;;3.03;;
71667;SDS011;59504;54.806;9.640;2022-10-16T00:22:31;8.13;;;3.00;;
71667;SDS011;59504;54.806;9.640;2022-10-16T00:24:33;18.45;;;3.40;;
71667;SDS011;59504;54.806;9.640;2022-10-16T00:26:34;12.13;;;2.92;;
71667;SDS011;59504;54.806;9.640;2022-10-16T00:28:36;13.77;;;3.20;;
71667;SDS011;59504;54.806;9.640;2022-10-16T00:30:38;9.00;;;3.20;;
71667;SDS011;59504;54.806;9.640;2022-10-16T00:32:39;9.15;;;3.13;;
71667;SDS011;59504;54.806;9.640;2022-10-16T00:34:39;10.52;;;3.65;;
71667;SDS011;59504;54.806;9.640;2022-10-16T00:36:40;10.73;;;3.92;;
71667;SDS011;59504;54.806;9.640;2022-10-16T00:38:41;8.68;;;3.53;;
71667;SDS011;59504;54.806;9.640;2022-10-16T00:40:42;9.35;;;3.03;;
71667;SDS011;59504;54.806;9.640;2022-10-16T00:43:07;6.55;;;2.97;;
71667;SDS011;59504;54.806;9.640;2022-10-16T00:45:34;7.03;;;3.03;;
71667;SDS011;59504;54.806;9.640;2022-10-16T00:47:55;12.60;;;3.63;;
71667;SDS011;59504;54.806;9.640;2022-10-16T00:52:47;16.90;;;3.40;;
71667;SDS011;59504;54.806;9.640;2022-10-16T00:55:10;10.20;;;3.05;;
71667;SDS011;59504;54.806;9.640;2022-10-16T00:57:10;7.22;;;2.83;;
71667;SDS011;59504;54.806;9.640;2022-10-16T00:59:14;9.63;;;2.95;;
71667;SDS011;59504;54.806;9.640;2022-10-16T01:01:22;12.10;;;2.95;;
71667;SDS011;59504;54.806;9.640;2022-10-16T01:03:24;9.32;;;2.97;;
71667;SDS011;59504;54.806;9.640;2022-10-16T01:05:34;11.68;;;3.08;;
71667;SDS011;59504;54.806;9.640;2022-10-16T01:08:07;10.95;;;3.15;;
71667;SDS011;59504;54.806;9.640;2022-10-16T01:10:17;7.70;;;2.38;;
71667;SDS011;59504;54.806;9.640;2022-10-16T01:12:38;3.63;;;1.88;;
71667;SDS011;59504;54.806;9.640;2022-10-16T01:17:15;13.80;;;2.50;;
71667;SDS011;59504;54.806;9.640;2022-10-16T01:21:35;10.85;;;2.25;;
71667;SDS011;59504;54.806;9.640;2022-10-16T01:30:56;12.18;;;1.80;;
71667;SDS011;59504;54.806;9.640;2022-10-16T01:33:03;7.88;;;2.42;;
71667;SDS011;59504;54.806;9.640;2022-10-16T01:35:22;10.75;;;1.92;;
71667;SDS011;59504;54.806;9.640;2022-10-16T01:37:35;7.53;;;1.80;;
71667;SDS011;59504;54.806;9.640;2022-10-16T01:39:42;14.40;;;2.00;;
71667;SDS011;59504;54.806;9.640;2022-10-16T01:41:48;8.27;;;1.85;;
71667;SDS011;59504;54.806;9.640;2022-10-16T01:44:42;5.93;;;1.73;;
71667;SDS011;59504;54.806;9.640;2022-10-16T01:46:20;5.15;;;1.25;;
71667;SDS011;59504;54.806;9.640;2022-10-16T01:48:22;7.38;;;1.70;;
71667;SDS011;59504;54.806;9.640;2022-10-16T01:50:24;9.80;;;1.73;;
71667;SDS011;59504;54.806;9.640;2022-10-16T01:52:26;6.93;;;1.55;;
71667;SDS011;59504;54.806;9.640;2022-10-16T01:54:29;10.43;;;1.77;;
71667;SDS011;59504;54.806;9.640;2022-10-16T01:56:32;6.82;;;1.70;;
71667;SDS011;59504;54.806;9.640;2022-10-16T01:58:36;10.93;;;1.40;;
71667;SDS011;59504;54.806;9.640;2022-10-16T02:00:42;12.63;;;2.47;;
71667;SDS011;59504;54.806;9.640;2022-10-16T02:02:47;9.48;;;1.80;;
71667;SDS011;59504;54.806;9.640;2022-10-16T02:04:58;11.63;;;1.80;;
71667;SDS011;59504;54.806;9.640;2022-10-16T02:07:03;12.83;;;1.93;;
71667;SDS011;59504;54.806;9.640;2022-10-16T02:09:04;11.50;;;1.98;;
71667;SDS011;59504;54.806;9.640;2022-10-16T02:11:05;9.23;;;1.67;;
71667;SDS011;59504;54.806;9.640;2022-10-16T02:13:11;7.55;;;1.70;;
71667;SDS011;59504;54.806;9.640;2022-10-16T02:15:23;15.52;;;2.00;;
71667;SDS011;59504;54.806;9.640;2022-10-16T02:17:23;7.65;;;1.95;;
71667;SDS011;59504;54.806;9.640;2022-10-16T02:19:24;9.05;;;1.50;;
71667;SDS011;59504;54.806;9.640;2022-10-16T02:21:26;6.32;;;1.77;;
71667;SDS011;59504;54.806;9.640;2022-10-16T02:25:37;8.98;;;2.15;;
71667;SDS011;59504;54.806;9.640;2022-10-16T02:27:52;8.68;;;1.92;;
71667;SDS011;59504;54.806;9.640;2022-10-16T02:32:48;9.50;;;1.90;;
71667;SDS011;59504;54.806;9.640;2022-10-16T02:34:51;12.15;;;1.92;;
71667;SDS011;59504;54.806;9.640;2022-10-16T02:36:52;13.25;;;2.30;;
71667;SDS011;59504;54.806;9.640;2022-10-16T02:38:54;11.70;;;2.00;;
71667;SDS011;59504;54.806;9.640;2022-10-16T02:40:55;11.57;;;2.08;;
71667;SDS011;59504;54.806;9.640;2022-10-16T02:42:56;7.93;;;1.92;;
71667;SDS011;59504;54.806;9.640;2022-10-16T02:44:57;6.55;;;1.80;;
71667;SDS011;59504;54.806;9.640;2022-10-16T02:46:57;8.63;;;1.70;;
71667;SDS011;59504;54.806;9.640;2022-10-16T02:48:58;9.18;;;1.88;;
71667;SDS011;59504;54.806;9.640;2022-10-16T02:50:59;8.13;;;1.90;;
71667;SDS011;59504;54.806;9.640;2022-10-16T02:52:59;11.70;;;1.88;;
71667;SDS011;59504;54.806;9.640;2022-10-16T02:55:00;15.02;;;2.17;;
71667;SDS011;59504;54.806;9.640;2022-10-16T02:57:01;7.60;;;1.92;;
71667;SDS011;59504;54.806;9.640;2022-10-16T02:59:01;15.45;;;2.00;;
71667;SDS011;59504;54.806;9.640;2022-10-16T03:01:02;8.93;;;1.80;;
71667;SDS011;59504;54.806;9.640;2022-10-16T03:03:03;7.82;;;2.30;;
71667;SDS011;59504;54.806;9.640;2022-10-16T03:05:04;8.32;;;2.03;;
71667;SDS011;59504;54.806;9.640;2022-10-16T03:07:05;8.30;;;1.95;;
71667;SDS011;59504;54.806;9.640;2022-10-16T03:09:06;7.28;;;2.03;;
71667;SDS011;59504;54.806;9.640;2022-10-16T03:11:07;5.85;;;1.70;;
71667;SDS011;59504;54.806;9.640;2022-10-16T03:13:08;11.60;;;2.13;;
71667;SDS011;59504;54.806;9.640;2022-10-16T03:15:09;6.50;;;1.90;;
71667;SDS011;59504;54.806;9.640;2022-10-16T03:17:10;12.70;;;2.00;;
71667;SDS011;59504;54.806;9.640;2022-10-16T03:19:11;8.77;;;1.88;;
71667;SDS011;59504;54.806;9.640;2022-10-16T03:21:11;10.45;;;1.90;;
71667;SDS011;59504;54.806;9.640;2022-10-16T03:23:12;8.60;;;1.77;;
71667;SDS011;59504;54.806;9.640;2022-10-16T03:25:13;7.45;;;1.90;;
71667;SDS011;59504;54.806;9.640;2022-10-16T03:27:13;12.55;;;1.88;;
71667;SDS011;59504;54.806;9.640;2022-10-16T03:29:14;6.25;;;1.67;;
71667;SDS011;59504;54.806;9.640;2022-10-16T03:31:14;7.93;;;1.92;;
71667;SDS011;59504;54.806;9.640;2022-10-16T03:33:15;9.95;;;2.33;;
71667;SDS011;59504;54.806;9.640;2022-10-16T03:35:16;5.40;;;1.90;;
71667;SDS011;59504;54.806;9.640;2022-10-16T03:37:16;14.05;;;2.05;;
71667;SDS011;59504;54.806;9.640;2022-10-16T03:39:17;5.40;;;1.75;;
71667;SDS011;59504;54.806;9.640;2022-10-16T03:41:18;12.43;;;2.70;;
71667;SDS011;59504;54.806;9.640;2022-10-16T03:43:19;10.50;;;1.63;;
71667;SDS011;59504;54.806;9.640;2022-10-16T03:45:19;9.15;;;2.22;;
71667;SDS011;59504;54.806;9.640;2022-10-16T03:47:20;9.35;;;1.85;;
71667;SDS011;59504;54.806;9.640;2022-10-16T03:49:23;10.68;;;1.98;;
71667;SDS011;59504;54.806;9.640;2022-10-16T03:51:24;10.35;;;2.00;;
71667;SDS011;59504;54.806;9.640;2022-10-16T03:53:24;7.15;;;1.60;;
71667;SDS011;59504;54.806;9.640;2022-10-16T03:55:26;12.02;;;2.03;;
71667;SDS011;59504;54.806;9.640;2022-10-16T03:57:30;6.68;;;1.67;;
71667;SDS011;59504;54.806;9.640;2022-10-16T03:59:35;6.55;;;1.52;;
71667;SDS011;59504;54.806;9.640;2022-10-16T04:01:35;12.05;;;2.10;;
71667;SDS011;59504;54.806;9.640;2022-10-16T04:03:36;14.25;;;1.90;;
71667;SDS011;59504;54.806;9.640;2022-10-16T04:05:37;8.75;;;1.63;;
71667;SDS011;59504;54.806;9.640;2022-10-16T04:07:38;9.10;;;1.80;;
71667;SDS011;59504;54.806;9.640;2022-10-16T04:09:39;9.68;;;1.52;;
71667;SDS011;59504;54.806;9.640;2022-10-16T04:11:40;10.43;;;2.22;;
71667;SDS011;59504;54.806;9.640;2022-10-16T04:14:01;14.32;;;1.55;;
71667;SDS011;59504;54.806;9.640;2022-10-16T04:16:22;8.43;;;1.58;;
71667;SDS011;59504;54.806;9.640;2022-10-16T04:18:43;8.30;;;1.52;;
71667;SDS011;59504;54.806;9.640;2022-10-16T04:21:06;4.78;;;1.50;;
71667;SDS011;59504;54.806;9.640;2022-10-16T04:23:28;7.28;;;1.90;;
71667;SDS011;59504;54.806;9.640;2022-10-16T04:25:48;6.90;;;1.45;;
71667;SDS011;59504;54.806;9.640;2022-10-16T04:28:09;6.40;;;1.58;;
71667;SDS011;59504;54.806;9.640;2022-10-16T04:30:29;9.80;;;1.63;;
71667;SDS011;59504;54.806;9.640;2022-10-16T04:32:51;6.60;;;1.60;;
71667;SDS011;59504;54.806;9.640;2022-10-16T04:35:12;12.50;;;1.73;;
71667;SDS011;59504;54.806;9.640;2022-10-16T04:37:32;7.72;;;1.58;;
71667;SDS011;59504;54.806;9.640;2022-10-16T04:39:53;7.28;;;1.40;;
71667;SDS011;59504;54.806;9.640;2022-10-16T04:42:14;6.32;;;1.42;;
71667;SDS011;59504;54.806;9.640;2022-10-16T04:44:34;14.13;;;1.60;;
71667;SDS011;59504;54.806;9.640;2022-10-16T04:46:55;5.65;;;1.35;;
71667;SDS011;59504;54.806;9.640;2022-10-16T04:49:16;6.28;;;1.55;;
71667;SDS011;59504;54.806;9.640;2022-10-16T04:51:37;9.90;;;1.73;;
71667;SDS011;59504;54.806;9.640;2022-10-16T04:53:57;8.68;;;1.70;;
71667;SDS011;59504;54.806;9.640;2022-10-16T04:55:58;4.13;;;1.50;;
71667;SDS011;59504;54.806;9.640;2022-10-16T04:57:59;7.28;;;1.42;;
71667;SDS011;59504;54.806;9.640;2022-10-16T04:59:59;4.25;;;1.30;;
71667;SDS011;59504;54.806;9.640;2022-10-16T05:02:00;12.15;;;1.83;;
71667;SDS011;59504;54.806;9.640;2022-10-16T05:04:01;6.05;;;1.38;;
71667;SDS011;59504;54.806;9.640;2022-10-16T05:06:04;5.82;;;1.45;;
71667;SDS011;59504;54.806;9.640;2022-10-16T05:08:08;7.45;;;1.67;;
71667;SDS011;59504;54.806;9.640;2022-10-16T05:10:08;6.13;;;1.30;;
71667;SDS011;59504;54.806;9.640;2022-10-16T05:12:09;7.63;;;1.38;;
71667;SDS011;59504;54.806;9.640;2022-10-16T05:14:10;6.43;;;1.55;;
71667;SDS011;59504;54.806;9.640;2022-10-16T05:16:10;6.45;;;1.48;;
71667;SDS011;59504;54.806;9.640;2022-10-16T05:18:11;4.63;;;1.33;;
71667;SDS011;59504;54.806;9.640;2022-10-16T05:20:12;9.93;;;2.10;;
71667;SDS011;59504;54.806;9.640;2022-10-16T05:22:13;7.32;;;1.35;;
71667;SDS011;59504;54.806;9.640;2022-10-16T05:24:13;8.10;;;1.65;;
71667;SDS011;59504;54.806;9.640;2022-10-16T05:26:14;10.07;;;1.88;;
71667;SDS011;59504;54.806;9.640;2022-10-16T05:28:15;6.80;;;2.03;;
71667;SDS011;59504;54.806;9.640;2022-10-16T05:30:16;14.70;;;1.90;;
71667;SDS011;59504;54.806;9.640;2022-10-16T05:32:17;9.68;;;2.00;;
71667;SDS011;59504;54.806;9.640;2022-10-16T05:34:19;4.70;;;1.50;;
71667;SDS011;59504;54.806;9.640;2022-10-16T05:36:19;9.95;;;2.03;;
71667;SDS011;59504;54.806;9.640;2022-10-16T05:38:20;7.10;;;1.70;;
71667;SDS011;59504;54.806;9.640;2022-10-16T05:40:21;12.55;;;1.67;;
71667;SDS011;59504;54.806;9.640;2022-10-16T05:42:21;11.02;;;1.55;;
71667;SDS011;59504;54.806;9.640;2022-10-16T05:44:22;6.25;;;1.60;;
71667;SDS011;59504;54.806;9.640;2022-10-16T05:46:23;3.88;;;1.40;;
71667;SDS011;59504;54.806;9.640;2022-10-16T05:48:24;5.75;;;1.70;;
71667;SDS011;59504;54.806;9.640;2022-10-16T05:50:25;14.32;;;1.88;;
71667;SDS011;59504;54.806;9.640;2022-10-16T05:52:27;4.68;;;1.48;;
71667;SDS011;59504;54.806;9.640;2022-10-16T05:54:28;6.72;;;1.50;;
71667;SDS011;59504;54.806;9.640;2022-10-16T05:56:28;7.20;;;1.58;;
71667;SDS011;59504;54.806;9.640;2022-10-16T05:58:30;7.07;;;1.52;;
71667;SDS011;59504;54.806;9.640;2022-10-16T06:00:32;5.53;;;1.50;;
71667;SDS011;59504;54.806;9.640;2022-10-16T06:02:32;19.67;;;1.63;;
71667;SDS011;59504;54.806;9.640;2022-10-16T06:04:33;9.75;;;1.80;;
71667;SDS011;59504;54.806;9.640;2022-10-16T06:06:34;14.27;;;1.85;;
71667;SDS011;59504;54.806;9.640;2022-10-16T06:08:36;7.35;;;1.63;;
71667;SDS011;59504;54.806;9.640;2022-10-16T06:10:37;6.90;;;1.52;;
71667;SDS011;59504;54.806;9.640;2022-10-16T06:12:37;3.63;;;1.10;;
71667;SDS011;59504;54.806;9.640;2022-10-16T06:14:38;3.67;;;1.50;;
71667;SDS011;59504;54.806;9.640;2022-10-16T06:16:39;6.93;;;1.85;;
71667;SDS011;59504;54.806;9.640;2022-10-16T06:18:39;6.55;;;1.90;;
71667;SDS011;59504;54.806;9.640;2022-10-16T06:20:40;4.57;;;1.52;;
71667;SDS011;59504;54.806;9.640;2022-10-16T06:22:41;6.30;;;1.45;;
71667;SDS011;59504;54.806;9.640;2022-10-16T06:24:41;2.83;;;1.08;;
71667;SDS011;59504;54.806;9.640;2022-10-16T06:26:42;6.82;;;1.35;;
71667;SDS011;59504;54.806;9.640;2022-10-16T06:28:43;12.90;;;2.00;;
71667;SDS011;59504;54.806;9.640;2022-10-16T06:30:43;4.85;;;1.80;;
71667;SDS011;59504;54.806;9.640;2022-10-16T06:32:44;8.35;;;1.35;;
71667;SDS011;59504;54.806;9.640;2022-10-16T06:34:45;5.95;;;1.90;;
71667;SDS011;59504;54.806;9.640;2022-10-16T06:36:46;7.45;;;1.33;;
71667;SDS011;59504;54.806;9.640;2022-10-16T06:38:46;8.75;;;1.10;;
71667;SDS011;59504;54.806;9.640;2022-10-16T06:40:47;9.65;;;1.13;;
71667;SDS011;59504;54.806;9.640;2022-10-16T06:42:48;4.63;;;1.15;;
71667;SDS011;59504;54.806;9.640;2022-10-16T06:44:49;4.05;;;1.13;;
71667;SDS011;59504;54.806;9.640;2022-10-16T06:46:49;7.43;;;1.60;;
71667;SDS011;59504;54.806;9.640;2022-10-16T06:48:50;6.20;;;1.30;;
71667;SDS011;59504;54.806;9.640;2022-10-16T06:51:01;15.52;;;1.73;;
71667;SDS011;59504;54.806;9.640;2022-10-16T06:53:04;6.53;;;1.25;;
71667;SDS011;59504;54.806;9.640;2022-10-16T06:55:05;8.05;;;1.38;;
71667;SDS011;59504;54.806;9.640;2022-10-16T06:57:06;3.38;;;1.25;;
71667;SDS011;59504;54.806;9.640;2022-10-16T06:59:06;7.38;;;1.30;;
71667;SDS011;59504;54.806;9.640;2022-10-16T07:01:07;12.43;;;1.58;;
71667;SDS011;59504;54.806;9.640;2022-10-16T07:03:12;6.25;;;1.33;;
71667;SDS011;59504;54.806;9.640;2022-10-16T07:05:13;4.82;;;1.17;;
71667;SDS011;59504;54.806;9.640;2022-10-16T07:07:14;2.85;;;0.93;;
71667;SDS011;59504;54.806;9.640;2022-10-16T07:09:14;5.28;;;1.60;;
71667;SDS011;59504;54.806;9.640;2022-10-16T07:11:16;4.47;;;1.17;;
71667;SDS011;59504;54.806;9.640;2022-10-16T07:13:19;6.47;;;1.33;;
71667;SDS011;59504;54.806;9.640;2022-10-16T07:15:19;8.40;;;1.38;;
71667;SDS011;59504;54.806;9.640;2022-10-16T07:17:20;8.82;;;1.15;;
71667;SDS011;59504;54.806;9.640;2022-10-16T07:19:21;4.32;;;1.20;;
71667;SDS011;59504;54.806;9.640;2022-10-16T07:21:22;10.30;;;1.42;;
71667;SDS011;59504;54.806;9.640;2022-10-16T07:23:22;5.75;;;1.20;;
71667;SDS011;59504;54.806;9.640;2022-10-16T07:25:23;13.65;;;1.63;;
71667;SDS011;59504;54.806;9.640;2022-10-16T07:27:24;2.90;;;0.75;;
71667;SDS011;59504;54.806;9.640;2022-10-16T07:29:24;8.82;;;1.42;;
71667;SDS011;59504;54.806;9.640;2022-10-16T07:31:25;3.83;;;0.90;;
71667;SDS011;59504;54.806;9.640;2022-10-16T07:33:26;5.95;;;1.27;;
71667;SDS011;59504;54.806;9.640;2022-10-16T07:35:28;7.28;;;1.05;;
71667;SDS011;59504;54.806;9.640;2022-10-16T07:37:28;5.50;;;1.33;;
71667;SDS011;59504;54.806;9.640;2022-10-16T07:39:29;4.50;;;1.17;;
71667;SDS011;59504;54.806;9.640;2022-10-16T07:41:30;9.13;;;1.38;;
71667;SDS011;59504;54.806;9.640;2022-10-16T07:43:33;11.20;;;1.02;;
71667;SDS011;59504;54.806;9.640;2022-10-16T07:45:33;9.05;;;1.23;;
71667;SDS011;59504;54.806;9.640;2022-10-16T07:47:34;7.35;;;0.90;;
71667;SDS011;59504;54.806;9.640;2022-10-16T07:49:34;5.03;;;1.38;;
71667;SDS011;59504;54.806;9.640;2022-10-16T07:51:35;8.85;;;1.65;;
71667;SDS011;59504;54.806;9.640;2022-10-16T07:53:38;3.95;;;1.50;;
71667;SDS011;59504;54.806;9.640;2022-10-16T07:55:38;6.10;;;1.15;;
71667;SDS011;59504;54.806;9.640;2022-10-16T07:57:39;5.07;;;1.23;;
71667;SDS011;59504;54.806;9.640;2022-10-16T07:59:40;3.05;;;1.05;;
71667;SDS011;59504;54.806;9.640;2022-10-16T08:01:40;8.55;;;1.20;;
71667;SDS011;59504;54.806;9.640;2022-10-16T08:05:45;7.32;;;1.30;;
71667;SDS011;59504;54.806;9.640;2022-10-16T08:07:50;6.40;;;1.13;;
71667;SDS011;59504;54.806;9.640;2022-10-16T08:09:50;4.70;;;1.08;;
71667;SDS011;59504;54.806;9.640;2022-10-16T08:11:51;6.07;;;1.23;;
71667;SDS011;59504;54.806;9.640;2022-10-16T08:13:52;15.18;;;1.48;;
71667;SDS011;59504;54.806;9.640;2022-10-16T08:15:53;15.05;;;1.85;;
71667;SDS011;59504;54.806;9.640;2022-10-16T08:17:58;7.95;;;1.45;;
71667;SDS011;59504;54.806;9.640;2022-10-16T08:20:00;9.20;;;1.48;;
71667;SDS011;59504;54.806;9.640;2022-10-16T08:22:02;6.28;;;1.13;;
71667;SDS011;59504;54.806;9.640;2022-10-16T08:24:03;8.82;;;1.15;;
71667;SDS011;59504;54.806;9.640;2022-10-16T08:26:24;5.75;;;1.30;;
71667;SDS011;59504;54.806;9.640;2022-10-16T08:28:49;9.35;;;1.27;;
71667;SDS011;59504;54.806;9.640;2022-10-16T08:30:50;6.35;;;1.40;;
71667;SDS011;59504;54.806;9.640;2022-10-16T08:32:51;4.47;;;0.90;;
71667;SDS011;59504;54.806;9.640;2022-10-16T08:35:12;8.25;;;1.15;;
71667;SDS011;59504;54.806;9.640;2022-10-16T08:37:22;8.15;;;1.27;;
71667;SDS011;59504;54.806;9.640;2022-10-16T08:39:28;5.55;;;1.35;;
71667;SDS011;59504;54.806;9.640;2022-10-16T08:49:31;9.23;;;0.90;;
71667;SDS011;59504;54.806;9.640;2022-10-16T08:51:36;6.97;;;1.08;;
71667;SDS011;59504;54.806;9.640;2022-10-16T08:53:57;5.53;;;0.90;;
71667;SDS011;59504;54.806;9.640;2022-10-16T08:58:42;4.40;;;1.10;;
71667;SDS011;59504;54.806;9.640;2022-10-16T09:00:56;4.53;;;1.15;;
71667;SDS011;59504;54.806;9.640;2022-10-16T09:08:30;5.93;;;0.98;;
71667;SDS011;59504;54.806;9.640;2022-10-16T09:11:03;13.02;;;1.38;;
71667;SDS011;59504;54.806;9.640;2022-10-16T09:13:56;8.23;;;1.55;;
71667;SDS011;59504;54.806;9.640;2022-10-16T09:16:44;7.75;;;1.10;;
71667;SDS011;59504;54.806;9.640;2022-10-16T09:19:20;5.78;;;1.10;;
71667;SDS011;59504;54.806;9.640;2022-10-16T09:21:56;6.70;;;1.23;;
71667;SDS011;59504;54.806;9.640;2022-10-16T09:24:23;6.75;;;1.55;;
71667;SDS011;59504;54.806;9.640;2022-10-16T09:29:08;11.95;;;1.40;;
71667;SDS011;59504;54.806;9.640;2022-10-16T09:31:32;5.80;;;0.90;;
71667;SDS011;59504;54.806;9.640;2022-10-16T09:34:00;10.40;;;1.52;;
71667;SDS011;59504;54.806;9.640;2022-10-16T09:36:26;10.68;;;1.58;;
71667;SDS011;59504;54.806;9.640;2022-10-16T09:38:49;11.23;;;1.50;;
71667;SDS011;59504;54.806;9.640;2022-10-16T09:43:46;13.05;;;1.67;;
71667;SDS011;59504;54.806;9.640;2022-10-16T09:46:21;12.50;;;1.83;;
71667;SDS011;59504;54.806;9.640;2022-10-16T09:48:43;14.57;;;1.63;;
71667;SDS011;59504;54.806;9.640;2022-10-16T09:51:15;13.45;;;2.25;;
71667;SDS011;59504;54.806;9.640;2022-10-16T09:53:46;13.30;;;1.80;;
71667;SDS011;59504;54.806;9.640;2022-10-16T09:56:09;12.63;;;1.80;;
71667;SDS011;59504;54.806;9.640;2022-10-16T09:58:33;8.50;;;1.80;;
71667;SDS011;59504;54.806;9.640;2022-10-16T10:00:54;7.55;;;1.92;;
71667;SDS011;59504;54.806;9.640;2022-10-16T10:03:20;11.48;;;1.63;;
71667;SDS011;59504;54.806;9.640;2022-10-16T10:06:07;12.55;;;1.85;;
71667;SDS011;59504;54.806;9.640;2022-10-16T10:14:15;15.32;;;2.08;;
71667;SDS011;59504;54.806;9.640;2022-10-16T10:16:39;13.75;;;2.03;;
71667;SDS011;59504;54.806;9.640;2022-10-16T10:19:00;13.10;;;2.30;;
71667;SDS011;59504;54.806;9.640;2022-10-16T10:21:02;18.35;;;2.50;;
71667;SDS011;59504;54.806;9.640;2022-10-16T10:23:24;17.77;;;2.13;;
71667;SDS011;59504;54.806;9.640;2022-10-16T10:25:36;14.23;;;2.15;;
71667;SDS011;59504;54.806;9.640;2022-10-16T10:29:57;9.43;;;1.85;;
71667;SDS011;59504;54.806;9.640;2022-10-16T10:34:31;12.88;;;1.92;;
71667;SDS011;59504;54.806;9.640;2022-10-16T10:36:36;15.38;;;2.40;;
71667;SDS011;59504;54.806;9.640;2022-10-16T10:47:35;17.27;;;2.65;;
71667;SDS011;59504;54.806;9.640;2022-10-16T10:52:18;22.83;;;2.65;;
71667;SDS011;59504;54.806;9.640;2022-10-16T10:54:40;20.95;;;2.70;;
71667;SDS011;59504;54.806;9.640;2022-10-16T10:56:58;17.42;;;2.50;;
71667;SDS011;59504;54.806;9.640;2022-10-16T11:01:40;10.73;;;2.00;;
71667;SDS011;59504;54.806;9.640;2022-10-16T11:06:26;14.98;;;2.38;;
71667;SDS011;59504;54.806;9.640;2022-10-16T11:08:48;6.53;;;1.40;;
71667;SDS011;59504;54.806;9.640;2022-10-16T11:11:18;16.10;;;1.95;;
71667;SDS011;59504;54.806;9.640;2022-10-16T11:13:30;19.25;;;2.97;;
71667;SDS011;59504;54.806;9.640;2022-10-16T11:15:47;15.10;;;1.92;;
71667;SDS011;59504;54.806;9.640;2022-10-16T11:20:03;20.30;;;2.70;;
71667;SDS011;59504;54.806;9.640;2022-10-16T11:22:38;12.43;;;2.22;;
71667;SDS011;59504;54.806;9.640;2022-10-16T11:24:49;14.20;;;2.40;;
71667;SDS011;59504;54.806;9.640;2022-10-16T11:26:58;12.82;;;2.15;;
71667;SDS011;59504;54.806;9.640;2022-10-16T11:29:03;17.83;;;2.20;;
71667;SDS011;59504;54.806;9.640;2022-10-16T11:31:19;14.48;;;2.72;;
71667;SDS011;59504;54.806;9.640;2022-10-16T11:33:32;20.25;;;2.38;;
71667;SDS011;59504;54.806;9.640;2022-10-16T11:38:14;12.98;;;2.33;;
71667;SDS011;59504;54.806;9.640;2022-10-16T11:40:31;12.35;;;1.88;;
71667;SDS011;59504;54.806;9.640;2022-10-16T11:42:37;10.02;;;1.75;;
71667;SDS011;59504;54.806;9.640;2022-10-16T11:49:41;15.98;;;1.85;;
71667;SDS011;59504;54.806;9.640;2022-10-16T11:54:18;12.05;;;1.77;;
71667;SDS011;59504;54.806;9.640;2022-10-16T11:56:26;16.98;;;1.92;;
71667;SDS011;59504;54.806;9.640;2022-10-16T11:58:31;16.35;;;2.50;;
71667;SDS011;59504;54.806;9.640;2022-10-16T12:05:22;16.90;;;2.47;;
71667;SDS011;59504;54.806;9.640;2022-10-16T12:07:27;19.33;;;2.42;;
71667;SDS011;59504;54.806;9.640;2022-10-16T12:09:38;14.20;;;1.60;;
71667;SDS011;59504;54.806;9.640;2022-10-16T12:11:41;13.73;;;2.15;;
71667;SDS011;59504;54.806;9.640;2022-10-16T12:13:42;20.50;;;2.13;;
71667;SDS011;59504;54.806;9.640;2022-10-16T12:15:43;19.55;;;2.60;;
71667;SDS011;59504;54.806;9.640;2022-10-16T12:17:52;13.70;;;2.03;;
71667;SDS011;59504;54.806;9.640;2022-10-16T12:20:01;22.10;;;2.90;;
71667;SDS011;59504;54.806;9.640;2022-10-16T12:22:17;15.32;;;1.95;;
71667;SDS011;59504;54.806;9.640;2022-10-16T12:24:43;12.00;;;1.83;;
71667;SDS011;59504;54.806;9.640;2022-10-16T12:26:53;17.30;;;2.97;;
71667;SDS011;59504;54.806;9.640;2022-10-16T12:31:38;16.17;;;2.83;;
71667;SDS011;59504;54.806;9.640;2022-10-16T12:34:14;13.63;;;2.13;;
71667;SDS011;59504;54.806;9.640;2022-10-16T12:36:54;12.73;;;1.95;;
71667;SDS011;59504;54.806;9.640;2022-10-16T12:39:27;17.08;;;2.25;;
71667;SDS011;59504;54.806;9.640;2022-10-16T12:41:48;15.20;;;2.22;;
71667;SDS011;59504;54.806;9.640;2022-10-16T12:44:22;14.55;;;2.55;;
71667;SDS011;59504;54.806;9.640;2022-10-16T12:49:55;18.25;;;2.67;;
71667;SDS011;59504;54.806;9.640;2022-10-16T12:51:47;17.08;;;2.58;;
71667;SDS011;59504;54.806;9.640;2022-10-16T12:54:13;17.52;;;2.40;;
71667;SDS011;59504;54.806;9.640;2022-10-16T12:59:17;17.67;;;2.65;;
71667;SDS011;59504;54.806;9.640;2022-10-16T13:02:05;17.73;;;2.60;;
71667;SDS011;59504;54.806;9.640;2022-10-16T13:04:47;25.33;;;2.67;;
71667;SDS011;59504;54.806;9.640;2022-10-16T13:07:27;19.88;;;3.13;;
71667;SDS011;59504;54.806;9.640;2022-10-16T13:10:14;11.40;;;2.55;;
71667;SDS011;59504;54.806;9.640;2022-10-16T13:23:40;21.50;;;3.17;;
71667;SDS011;59504;54.806;9.640;2022-10-16T13:28:48;11.50;;;2.08;;
71667;SDS011;59504;54.806;9.640;2022-10-16T13:31:12;18.67;;;3.20;;
71667;SDS011;59504;54.806;9.640;2022-10-16T13:33:45;21.75;;;3.30;;
71667;SDS011;59504;54.806;9.640;2022-10-16T13:36:21;18.73;;;2.78;;
71667;SDS011;59504;54.806;9.640;2022-10-16T13:38:43;22.25;;;2.90;;
71667;SDS011;59504;54.806;9.640;2022-10-16T13:41:15;27.83;;;3.08;;
71667;SDS011;59504;54.806;9.640;2022-10-16T13:43:38;22.42;;;3.20;;
71667;SDS011;59504;54.806;9.640;2022-10-16T13:46:21;16.55;;;2.50;;
71667;SDS011;59504;54.806;9.640;2022-10-16T13:48:43;21.05;;;2.70;;
71667;SDS011;59504;54.806;9.640;2022-10-16T13:51:16;19.77;;;2.90;;
71667;SDS011;59504;54.806;9.640;2022-10-16T13:53:38;19.48;;;3.13;;
71667;SDS011;59504;54.806;9.640;2022-10-16T13:55:59;18.20;;;2.92;;
71667;SDS011;59504;54.806;9.640;2022-10-16T13:58:23;20.33;;;3.05;;
71667;SDS011;59504;54.806;9.640;2022-10-16T14:00:25;19.20;;;2.80;;
71667;SDS011;59504;54.806;9.640;2022-10-16T14:02:37;16.67;;;2.35;;
71667;SDS011;59504;54.806;9.640;2022-10-16T14:04:40;24.95;;;3.17;;
71667;SDS011;59504;54.806;9.640;2022-10-16T14:06:42;30.05;;;3.22;;
71667;SDS011;59504;54.806;9.640;2022-10-16T14:08:46;12.02;;;2.28;;
71667;SDS011;59504;54.806;9.640;2022-10-16T14:10:54;22.98;;;2.97;;
71667;SDS011;59504;54.806;9.640;2022-10-16T14:13:05;18.63;;;2.90;;
71667;SDS011;59504;54.806;9.640;2022-10-16T14:15:15;20.25;;;3.05;;
71667;SDS011;59504;54.806;9.640;2022-10-16T14:17:18;21.65;;;2.78;;
71667;SDS011;59504;54.806;9.640;2022-10-16T14:19:26;19.45;;;2.58;;
71667;SDS011;59504;54.806;9.640;2022-10-16T14:23:31;17.58;;;2.47;;
71667;SDS011;59504;54.806;9.640;2022-10-16T14:25:39;17.38;;;2.55;;
71667;SDS011;59504;54.806;9.640;2022-10-16T14:27:41;19.38;;;2.95;;
71667;SDS011;59504;54.806;9.640;2022-10-16T14:29:42;21.73;;;2.85;;
71667;SDS011;59504;54.806;9.640;2022-10-16T14:31:53;14.15;;;3.03;;
71667;SDS011;59504;54.806;9.640;2022-10-16T14:33:55;17.42;;;2.85;;
71667;SDS011;59504;54.806;9.640;2022-10-16T14:38:17;24.00;;;2.70;;
71667;SDS011;59504;54.806;9.640;2022-10-16T14:40:22;21.00;;;2.55;;
71667;SDS011;59504;54.806;9.640;2022-10-16T14:42:25;14.18;;;2.67;;